createdAt,value
2018-11-25T00:00:57.866Z,9.36
2018-11-25T00:03:26.582Z,9.65
2018-11-25T00:05:55.043Z,8.61
2018-11-25T00:08:23.713Z,8.70
2018-11-25T00:10:52.164Z,9.10
2018-11-25T00:13:20.640Z,9.31
2018-11-25T00:15:49.099Z,9.38
2018-11-25T00:18:18.197Z,8.90
2018-11-25T00:20:46.599Z,9.15
2018-11-25T00:23:15.044Z,9.53
2018-11-25T00:25:43.525Z,8.72
2018-11-25T00:28:11.914Z,9.86
2018-11-25T00:30:40.311Z,9.18
2018-11-25T00:33:08.731Z,9.69
2018-11-25T00:35:37.148Z,9.73
2018-11-25T00:38:05.784Z,9.51
2018-11-25T00:40:34.204Z,9.37
2018-11-25T00:43:02.653Z,9.14
2018-11-25T00:45:31.094Z,9.20
2018-11-25T00:47:59.533Z,8.69
2018-11-25T00:50:27.937Z,9.44
2018-11-25T00:52:56.322Z,9.20
2018-11-25T00:55:24.692Z,9.13
2018-11-25T00:57:53.443Z,9.97
2018-11-25T01:00:21.873Z,9.24
2018-11-25T01:02:50.663Z,9.42
2018-11-25T01:05:19.122Z,9.60
2018-11-25T01:07:47.523Z,9.79
2018-11-25T01:10:16.658Z,10.24
2018-11-25T01:12:45.340Z,9.81
2018-11-25T01:15:16.428Z,9.71
2018-11-25T01:17:44.934Z,9.73
2018-11-25T01:20:15.650Z,9.77
2018-11-25T01:22:44.035Z,9.86
2018-11-25T01:25:12.560Z,9.68
2018-11-25T01:27:41.007Z,9.89
2018-11-25T01:30:11.717Z,9.78
2018-11-25T01:32:40.247Z,9.91
2018-11-25T01:35:09.729Z,9.94
2018-11-25T01:37:38.235Z,10.02
2018-11-25T01:40:10.901Z,9.25
2018-11-25T01:42:39.420Z,9.48
2018-11-25T01:45:09.648Z,9.62
2018-11-25T01:47:38.118Z,9.87
2018-11-25T01:50:08.420Z,9.76
2018-11-25T01:52:36.960Z,9.69
2018-11-25T01:55:06.782Z,9.82
2018-11-25T01:57:35.215Z,10.09
2018-11-25T02:00:03.671Z,9.95
2018-11-25T02:02:32.115Z,9.54
2018-11-25T02:05:00.596Z,10.00
2018-11-25T02:07:29.030Z,10.40
2018-11-25T02:09:57.521Z,9.50
2018-11-25T02:12:25.972Z,10.59
2018-11-25T02:14:54.399Z,10.47
2018-11-25T02:17:22.891Z,10.63
2018-11-25T02:19:51.329Z,10.07
2018-11-25T02:22:19.764Z,10.24
2018-11-25T02:24:48.260Z,10.14
2018-11-25T02:27:16.709Z,9.60
2018-11-25T02:29:45.114Z,10.03
2018-11-25T02:32:13.579Z,9.53
2018-11-25T02:34:41.986Z,10.02
2018-11-25T02:37:10.419Z,9.86
2018-11-25T02:39:38.832Z,10.21
2018-11-25T02:42:07.312Z,9.70
2018-11-25T02:44:35.730Z,9.72
2018-11-25T02:47:04.173Z,10.01
2018-11-25T02:49:32.607Z,9.40
2018-11-25T02:52:01.052Z,9.13
2018-11-25T02:54:29.446Z,8.96
2018-11-25T02:56:57.891Z,9.63
2018-11-25T02:59:26.400Z,10.00
2018-11-25T03:01:54.792Z,10.60
2018-11-25T03:04:23.263Z,9.72
2018-11-25T03:06:51.679Z,10.43
2018-11-25T03:09:20.085Z,10.91
2018-11-25T03:11:48.602Z,9.98
2018-11-25T03:14:17.007Z,9.50
2018-11-25T03:16:45.449Z,9.44
2018-11-25T03:19:13.862Z,10.00
2018-11-25T03:21:42.258Z,10.66
2018-11-25T03:24:10.714Z,10.48
2018-11-25T03:26:39.092Z,10.77
2018-11-25T03:29:07.486Z,10.41
2018-11-25T03:31:35.883Z,10.19
2018-11-25T03:34:04.239Z,10.00
2018-11-25T03:36:32.536Z,10.04
2018-11-25T03:39:00.882Z,10.61
2018-11-25T03:41:29.243Z,10.35
2018-11-25T03:43:57.558Z,10.64
2018-11-25T03:46:25.855Z,10.53
2018-11-25T03:48:54.230Z,10.88
2018-11-25T03:51:22.580Z,10.59
2018-11-25T03:53:50.921Z,9.64
2018-11-25T03:56:19.216Z,10.23
2018-11-25T03:58:47.655Z,10.28
2018-11-25T04:01:16.073Z,10.86
2018-11-25T04:03:44.439Z,11.02
2018-11-25T04:06:12.769Z,11.34
2018-11-25T04:08:41.055Z,11.17
2018-11-25T04:11:09.398Z,10.98
2018-11-25T04:13:37.705Z,10.47
2018-11-25T04:16:06.180Z,11.13
2018-11-25T04:18:34.488Z,10.70
2018-11-25T04:21:02.877Z,9.98
2018-11-25T04:23:31.300Z,9.51
2018-11-25T04:25:59.709Z,9.89
2018-11-25T04:28:28.016Z,9.25
2018-11-25T04:30:56.332Z,9.59
2018-11-25T04:33:24.652Z,10.13
2018-11-25T04:35:52.973Z,10.04
2018-11-25T04:38:21.269Z,9.92
2018-11-25T04:40:49.579Z,10.43
2018-11-25T04:43:17.880Z,10.50
2018-11-25T04:45:46.177Z,10.76
2018-11-25T04:48:14.459Z,10.33
2018-11-25T04:50:42.768Z,10.16
2018-11-25T04:53:11.083Z,10.14
2018-11-25T04:55:39.376Z,10.42
2018-11-25T04:58:07.696Z,10.23
2018-11-25T05:00:35.987Z,10.38
2018-11-25T05:03:04.283Z,10.20
2018-11-25T05:05:32.581Z,10.74
2018-11-25T05:08:00.953Z,10.93
2018-11-25T05:10:29.248Z,10.76
2018-11-25T05:12:57.532Z,10.39
2018-11-25T05:15:25.825Z,10.44
2018-11-25T05:17:54.168Z,9.95
2018-11-25T05:20:22.482Z,9.99
2018-11-25T05:22:50.801Z,10.24
2018-11-25T05:25:19.668Z,9.94
2018-11-25T05:27:48.039Z,10.14
2018-11-25T05:30:17.012Z,10.19
2018-11-25T05:32:45.368Z,10.09
2018-11-25T05:35:15.579Z,10.19
2018-11-25T05:37:43.868Z,9.73
2018-11-25T05:40:13.748Z,9.69
2018-11-25T05:42:42.189Z,10.42
2018-11-25T05:45:13.487Z,10.01
2018-11-25T05:47:41.935Z,10.13
2018-11-25T05:50:12.152Z,10.69
2018-11-25T05:52:40.584Z,10.50
2018-11-25T05:55:12.715Z,10.99
2018-11-25T05:57:41.117Z,10.91
2018-11-25T06:00:12.975Z,10.51
2018-11-25T06:02:41.307Z,10.75
2018-11-25T06:05:09.672Z,11.16
2018-11-25T06:07:37.977Z,11.20
2018-11-25T06:10:09.613Z,11.20
2018-11-25T06:12:37.939Z,10.85
2018-11-25T06:15:10.031Z,10.79
2018-11-25T06:17:38.407Z,10.84
2018-11-25T06:20:08.499Z,10.66
2018-11-25T06:22:36.801Z,10.92
2018-11-25T06:25:05.598Z,10.56
2018-11-25T06:27:38.305Z,10.88
2018-11-25T06:30:02.235Z,10.89
2018-11-25T06:32:30.556Z,10.90
2018-11-25T06:34:58.847Z,11.07
2018-11-25T06:37:27.175Z,10.94
2018-11-25T06:39:55.492Z,11.03
2018-11-25T06:42:23.807Z,11.16
2018-11-25T06:44:52.128Z,11.04
2018-11-25T06:47:20.436Z,11.00
2018-11-25T06:49:48.733Z,10.81
2018-11-25T06:52:17.045Z,10.93
2018-11-25T06:54:45.333Z,10.77
2018-11-25T06:57:13.634Z,10.98
2018-11-25T06:59:41.964Z,10.73
2018-11-25T07:02:10.275Z,10.70
2018-11-25T07:04:38.600Z,10.87
2018-11-25T07:07:06.921Z,10.70
2018-11-25T07:09:35.215Z,10.51
2018-11-25T07:12:03.559Z,10.48
2018-11-25T07:14:31.901Z,10.29
2018-11-25T07:17:00.219Z,10.55
2018-11-25T07:19:28.522Z,10.51
2018-11-25T07:21:56.900Z,10.02
2018-11-25T07:24:25.319Z,10.36
2018-11-25T07:26:53.803Z,10.54
2018-11-25T07:29:22.208Z,10.57
2018-11-25T07:31:50.629Z,9.84
2018-11-25T07:34:19.054Z,10.59
2018-11-25T07:36:47.445Z,10.69
2018-11-25T07:39:15.884Z,10.46
2018-11-25T07:41:44.302Z,10.47
2018-11-25T07:44:12.723Z,10.44
2018-11-25T07:46:41.124Z,10.80
2018-11-25T07:49:09.559Z,10.65
2018-11-25T07:51:38.005Z,10.87
2018-11-25T07:54:06.712Z,10.88
2018-11-25T07:56:35.160Z,10.91
2018-11-25T07:59:03.616Z,11.24
2018-11-25T08:01:32.032Z,11.13
2018-11-25T08:04:00.466Z,11.15
2018-11-25T08:06:28.867Z,11.19
2018-11-25T08:08:57.323Z,11.22
2018-11-25T08:11:25.736Z,11.31
2018-11-25T08:13:54.148Z,11.46
2018-11-25T08:16:22.623Z,11.62
2018-11-25T08:18:51.072Z,11.19
2018-11-25T08:21:19.471Z,11.16
2018-11-25T08:23:47.908Z,11.40
2018-11-25T08:26:16.444Z,10.95
2018-11-25T08:28:44.891Z,10.92
2018-11-25T08:31:13.355Z,10.49
2018-11-25T08:33:41.793Z,11.11
2018-11-25T08:36:10.234Z,11.00
2018-11-25T08:38:38.662Z,11.02
2018-11-25T08:41:07.268Z,11.01
2018-11-25T08:43:35.705Z,11.34
2018-11-25T08:46:04.114Z,11.27
2018-11-25T08:48:32.543Z,10.93
2018-11-25T08:51:00.960Z,10.17
2018-11-25T08:53:29.420Z,10.83
2018-11-25T08:55:58.669Z,10.78
2018-11-25T08:58:27.103Z,11.01
2018-11-25T09:00:55.516Z,11.26
2018-11-25T09:03:23.959Z,10.95
2018-11-25T09:05:52.432Z,11.40
2018-11-25T09:08:20.904Z,11.38
2018-11-25T09:10:49.389Z,11.37
2018-11-25T09:13:17.746Z,11.40
2018-11-25T09:15:46.174Z,11.83
2018-11-25T09:18:14.613Z,11.39
2018-11-25T09:20:43.112Z,11.25
2018-11-25T09:23:11.558Z,11.09
2018-11-25T09:25:39.980Z,10.70
2018-11-25T09:28:08.553Z,11.48
2018-11-25T09:30:36.957Z,11.21
2018-11-25T09:33:05.398Z,11.18
2018-11-25T09:35:33.877Z,11.32
2018-11-25T09:38:02.284Z,11.03
2018-11-25T09:40:30.682Z,11.46
2018-11-25T09:42:59.224Z,11.93
2018-11-25T09:45:27.631Z,11.43
2018-11-25T09:47:56.071Z,10.95
2018-11-25T09:50:24.726Z,11.79
2018-11-25T09:52:53.122Z,12.11
2018-11-25T09:55:23.492Z,11.89
2018-11-25T09:57:53.413Z,11.88
2018-11-25T10:00:24.802Z,10.88
2018-11-25T10:02:53.242Z,11.46
2018-11-25T10:05:22.565Z,11.89
2018-11-25T10:07:51.035Z,11.59
2018-11-25T10:10:21.293Z,11.71
2018-11-25T10:12:49.712Z,11.79
2018-11-25T10:15:21.047Z,12.61
2018-11-25T10:17:49.511Z,12.51
2018-11-25T10:20:19.884Z,12.95
2018-11-25T10:22:48.492Z,12.98
2018-11-25T10:25:17.312Z,12.88
2018-11-25T10:27:45.780Z,12.68
2018-11-25T10:30:17.448Z,12.63
2018-11-25T10:32:47.122Z,12.93
2018-11-25T10:35:15.563Z,12.71
2018-11-25T10:37:44.030Z,12.22
2018-11-25T10:40:13.327Z,12.86
2018-11-25T10:42:41.767Z,12.03
2018-11-25T10:45:25.995Z,12.51
2018-11-25T10:47:54.639Z,12.00
2018-11-25T10:50:23.171Z,11.76
2018-11-25T10:52:51.746Z,12.48
2018-11-25T10:55:20.845Z,12.83
2018-11-25T10:57:50.312Z,12.62
2018-11-25T11:00:26.212Z,12.65
2018-11-25T11:02:58.856Z,12.81
2018-11-25T11:07:38.598Z,13.05
2018-11-25T11:10:08.635Z,12.25
2018-11-25T11:12:37.135Z,11.58
2018-11-25T11:15:08.264Z,11.59
2018-11-25T11:17:36.710Z,11.39
2018-11-25T11:20:07.220Z,12.03
2018-11-25T11:22:35.607Z,11.68
2018-11-25T11:25:06.931Z,11.85
2018-11-25T11:27:35.416Z,11.67
2018-11-25T11:30:03.984Z,11.67
2018-11-25T11:32:32.451Z,11.73
2018-11-25T11:35:00.984Z,11.45
2018-11-25T11:37:29.428Z,11.49
2018-11-25T11:39:57.888Z,10.90
2018-11-25T11:42:28.682Z,11.35
2018-11-25T11:44:54.923Z,10.93
2018-11-25T11:47:23.391Z,11.47
2018-11-25T11:49:51.869Z,11.20
2018-11-25T11:52:20.461Z,11.56
2018-11-25T11:54:48.821Z,11.99
2018-11-25T11:57:17.354Z,12.03
2018-11-25T11:59:45.800Z,12.27
2018-11-25T12:02:14.239Z,11.54
2018-11-25T12:04:42.667Z,11.57
2018-11-25T12:07:11.095Z,12.09
2018-11-25T12:09:39.531Z,11.80
2018-11-25T12:12:07.986Z,11.61
2018-11-25T12:14:36.542Z,11.26
2018-11-25T12:17:05.181Z,11.31
2018-11-25T12:19:33.624Z,11.47
2018-11-25T12:22:02.100Z,12.07
2018-11-25T12:24:30.530Z,11.58
2018-11-25T12:26:58.960Z,11.36
2018-11-25T12:29:27.380Z,10.99
2018-11-25T12:31:55.805Z,11.06
2018-11-25T12:34:24.399Z,10.67
2018-11-25T12:36:53.433Z,11.13
2018-11-25T12:39:21.900Z,10.54
2018-11-25T12:41:49.771Z,11.24
2018-11-25T12:44:18.207Z,11.29
2018-11-25T12:46:46.591Z,10.30
2018-11-25T12:49:15.024Z,10.53
2018-11-25T12:51:43.467Z,10.43
2018-11-25T12:54:11.884Z,10.51
2018-11-25T12:56:40.297Z,11.37
2018-11-25T12:59:08.709Z,11.59
2018-11-25T13:01:37.158Z,11.46
2018-11-25T13:04:05.573Z,11.71
2018-11-25T13:06:34.015Z,11.79
2018-11-25T13:09:02.392Z,10.93
2018-11-25T13:11:30.867Z,10.42
2018-11-25T13:13:59.309Z,10.81
2018-11-25T13:16:27.695Z,10.50
2018-11-25T13:18:56.126Z,10.76
2018-11-25T13:21:24.513Z,10.61
2018-11-25T13:23:52.937Z,10.96
2018-11-25T13:26:21.444Z,11.14
2018-11-25T13:28:49.875Z,11.52
2018-11-25T13:31:18.361Z,11.18
2018-11-25T13:33:46.800Z,11.29
2018-11-25T13:36:15.248Z,11.15
2018-11-25T13:38:43.696Z,11.14
2018-11-25T13:41:12.152Z,11.12
2018-11-25T13:43:40.591Z,11.33
2018-11-25T13:46:09.085Z,11.38
2018-11-25T13:48:37.493Z,11.24
2018-11-25T13:51:06.771Z,11.52
2018-11-25T13:53:35.272Z,11.77
2018-11-25T13:56:03.693Z,11.18
2018-11-25T13:58:32.136Z,11.75
2018-11-25T14:01:00.649Z,11.68
2018-11-25T14:03:31.838Z,11.78
2018-11-25T14:06:00.256Z,11.31
2018-11-25T14:08:28.695Z,10.44
2018-11-25T14:11:04.588Z,10.99
2018-11-25T14:13:33.064Z,11.04
2018-11-25T14:16:01.512Z,11.20
2018-11-25T14:18:29.947Z,10.76
2018-11-25T14:20:58.417Z,10.87
2018-11-25T14:23:26.883Z,11.12
2018-11-25T14:25:56.160Z,11.34
2018-11-25T14:28:24.564Z,10.90
2018-11-25T14:30:53.045Z,10.97
2018-11-25T14:33:21.450Z,11.42
2018-11-25T14:35:49.820Z,11.52
2018-11-25T14:38:18.292Z,11.51
2018-11-25T14:40:46.727Z,10.75
2018-11-25T14:43:15.191Z,11.29
2018-11-25T14:45:43.577Z,10.60
2018-11-25T14:48:11.920Z,10.40
2018-11-25T14:50:40.419Z,10.85
2018-11-25T14:53:08.739Z,11.09
2018-11-25T14:55:37.090Z,11.59
2018-11-25T14:58:05.820Z,10.57
2018-11-25T15:00:34.135Z,10.92
2018-11-25T15:03:03.634Z,11.17
2018-11-25T15:05:38.267Z,11.43
2018-11-25T15:08:07.563Z,10.98
2018-11-25T15:10:35.909Z,11.34
2018-11-25T15:13:04.235Z,11.32
2018-11-25T15:15:32.607Z,10.02
2018-11-25T15:18:00.954Z,10.17
2018-11-25T15:20:29.380Z,9.87
2018-11-25T15:22:59.506Z,9.77
2018-11-25T15:25:31.403Z,10.51
2018-11-25T15:27:59.740Z,9.99
2018-11-25T15:30:28.090Z,10.48
2018-11-25T15:32:56.414Z,10.00
2018-11-25T15:35:24.736Z,10.88
2018-11-25T15:37:53.679Z,11.09
2018-11-25T15:40:26.164Z,11.45
2018-11-25T15:42:54.605Z,10.92
2018-11-25T15:45:22.985Z,11.06
2018-11-25T15:47:54.983Z,11.06
2018-11-25T15:50:25.127Z,10.56
2018-11-25T15:52:53.493Z,10.12
2018-11-25T15:55:22.058Z,10.83
2018-11-25T15:57:51.651Z,10.57
2018-11-25T16:00:19.823Z,10.30
2018-11-25T16:02:48.340Z,9.74
2018-11-25T16:05:25.632Z,9.51
2018-11-25T16:07:53.960Z,9.56
2018-11-25T16:10:22.308Z,9.94
2018-11-25T16:12:51.180Z,10.93
2018-11-25T16:15:23.662Z,10.77
2018-11-25T16:17:52.092Z,10.91
2018-11-25T16:20:27.979Z,10.88
2018-11-25T16:22:57.764Z,11.19
2018-11-25T16:25:31.574Z,11.18
2018-11-25T16:28:09.667Z,10.82
2018-11-25T16:30:38.027Z,10.75
2018-11-25T16:33:06.399Z,11.06
2018-11-25T16:35:34.721Z,9.62
2018-11-25T16:38:03.053Z,10.29
2018-11-25T16:40:31.384Z,10.28
2018-11-25T16:42:59.696Z,10.74
2018-11-25T16:45:28.057Z,10.24
2018-11-25T16:47:56.400Z,10.41
2018-11-25T16:50:25.483Z,9.88
2018-11-25T16:52:53.276Z,10.46
2018-11-25T16:55:21.639Z,10.55
2018-11-25T16:57:50.004Z,10.62
2018-11-25T17:00:19.385Z,10.65
2018-11-25T17:02:47.763Z,10.19
2018-11-25T17:05:20.381Z,10.05
2018-11-25T17:07:55.405Z,10.55
2018-11-25T17:10:23.740Z,8.75
2018-11-25T17:12:52.062Z,9.57
2018-11-25T17:15:21.788Z,9.95
2018-11-25T17:17:50.158Z,10.26
2018-11-25T17:20:18.535Z,10.00
2018-11-25T17:22:46.844Z,9.89
2018-11-25T17:25:15.201Z,10.16
2018-11-25T17:27:43.807Z,9.90
2018-11-25T17:30:16.933Z,10.01
2018-11-25T17:32:45.725Z,9.48
2018-11-25T17:35:17.416Z,9.81
2018-11-25T17:37:45.833Z,10.30
2018-11-25T17:40:14.449Z,9.84
2018-11-25T17:42:42.908Z,9.99
2018-11-25T17:45:12.584Z,10.42
2018-11-25T17:47:41.239Z,10.42
2018-11-25T17:50:14.431Z,10.65
2018-11-25T17:52:42.887Z,10.46
2018-11-25T17:55:12.562Z,9.90
2018-11-25T17:57:41.142Z,10.24
2018-11-25T18:00:13.783Z,10.67
2018-11-25T18:02:42.257Z,10.37
2018-11-25T18:05:10.791Z,10.70
2018-11-25T18:07:39.297Z,10.43
2018-11-25T18:10:09.868Z,9.70
2018-11-25T18:12:38.368Z,10.02
2018-11-25T18:15:16.584Z,9.48
2018-11-25T18:17:49.820Z,9.64
2018-11-25T18:20:18.376Z,9.88
2018-11-25T18:22:48.139Z,10.07
2018-11-25T18:25:16.637Z,10.12
2018-11-25T18:27:45.097Z,10.28
2018-11-25T18:30:14.986Z,10.50
2018-11-25T18:32:43.984Z,10.11
2018-11-25T18:35:12.474Z,10.26
2018-11-25T18:37:40.981Z,10.47
2018-11-25T18:40:11.902Z,10.54
2018-11-25T18:42:40.567Z,10.43
2018-11-25T18:45:11.037Z,10.15
2018-11-25T18:47:39.668Z,10.04
2018-11-25T18:50:10.182Z,9.64
2018-11-25T18:52:38.619Z,9.72
2018-11-25T18:55:05.977Z,9.33
2018-11-25T18:57:34.395Z,8.94
2018-11-25T19:00:03.057Z,8.54
2018-11-25T19:02:41.957Z,8.58
2018-11-25T19:05:10.455Z,8.30
2018-11-25T19:07:38.897Z,9.66
2018-11-25T19:10:12.636Z,9.97
2018-11-25T19:12:44.317Z,10.22
2018-11-25T19:15:10.946Z,10.44
2018-11-25T19:17:39.406Z,9.89
2018-11-25T19:20:14.951Z,10.56
2018-11-25T19:22:43.452Z,10.39
2018-11-25T19:25:14.081Z,10.73
2018-11-25T19:27:42.570Z,10.49
2018-11-25T19:30:16.422Z,10.31
2018-11-25T19:32:45.953Z,10.43
2018-11-25T19:35:15.622Z,10.72
2018-11-25T19:37:44.344Z,10.42
2018-11-25T19:40:14.863Z,10.84
2018-11-25T19:42:43.640Z,10.72
2018-11-25T19:45:19.868Z,9.99
2018-11-25T19:47:49.531Z,10.73
2018-11-25T19:50:21.665Z,10.37
2018-11-25T19:52:50.042Z,10.25
2018-11-25T19:55:18.555Z,10.26
2018-11-25T19:57:47.061Z,10.55
2018-11-25T20:00:17.000Z,10.24
2018-11-25T20:02:45.458Z,10.19
2018-11-25T20:05:14.372Z,9.92
2018-11-25T20:07:43.333Z,10.51
2018-11-25T20:10:15.772Z,10.81
2018-11-25T20:12:45.638Z,9.78
2018-11-25T20:15:15.259Z,10.17
2018-11-25T20:17:43.691Z,9.86
2018-11-25T20:20:13.114Z,9.56
2018-11-25T20:22:41.677Z,10.53
2018-11-25T20:25:11.121Z,10.37
2018-11-25T20:27:41.529Z,9.46
2018-11-25T20:30:11.906Z,9.16
2018-11-25T20:32:45.693Z,9.40
2018-11-25T20:35:14.148Z,9.82
2018-11-25T20:37:48.628Z,9.75
2018-11-25T20:40:17.108Z,9.86
2018-11-25T20:42:45.528Z,10.16
2018-11-25T20:45:20.740Z,9.49
2018-11-25T20:47:49.174Z,10.11
2018-11-25T20:50:17.650Z,8.74
2018-11-25T20:52:51.424Z,9.01
2018-11-25T20:55:20.537Z,8.72
2018-11-25T20:57:48.951Z,8.82
2018-11-25T21:00:18.591Z,9.49
2018-11-25T21:02:47.048Z,9.81
2018-11-25T21:05:15.923Z,9.45
2018-11-25T21:07:44.432Z,10.00
2018-11-25T21:10:15.657Z,9.72
2018-11-25T21:12:46.113Z,9.51
2018-11-25T21:15:15.118Z,9.94
2018-11-25T21:17:43.593Z,9.98
2018-11-25T21:20:16.328Z,10.37
2018-11-25T21:22:44.830Z,9.61
2018-11-25T21:25:14.457Z,10.58
2018-11-25T21:27:42.921Z,10.53
2018-11-25T21:30:16.162Z,9.95
2018-11-25T21:32:45.140Z,10.78
2018-11-25T21:35:13.972Z,9.91
2018-11-25T21:37:42.366Z,9.04
2018-11-25T21:40:12.037Z,9.22
2018-11-25T21:45:10.713Z,9.30
2018-11-25T21:47:39.131Z,9.63
2018-11-25T21:50:09.472Z,10.17
2018-11-25T21:52:37.952Z,10.12
2018-11-25T21:55:08.061Z,10.20
2018-11-25T21:57:36.521Z,10.41
2018-11-25T22:00:06.549Z,10.48
2018-11-25T22:02:35.061Z,10.52
2018-11-25T22:05:03.646Z,9.05
2018-11-25T22:07:32.097Z,9.76
2018-11-25T22:10:00.563Z,9.97
2018-11-25T22:12:29.007Z,9.78
2018-11-25T22:14:58.396Z,9.53
2018-11-25T22:17:26.963Z,10.27
2018-11-25T22:19:55.644Z,10.92
2018-11-25T22:22:24.171Z,9.59
2018-11-25T22:24:54.113Z,9.09
2018-11-25T22:27:22.787Z,9.89
2018-11-25T22:29:51.394Z,9.53
2018-11-25T22:32:27.238Z,9.96
2018-11-25T22:34:55.708Z,10.19
2018-11-25T22:37:24.112Z,10.44
2018-11-25T22:39:53.570Z,9.51
2018-11-25T22:42:22.734Z,9.37
2018-11-25T22:44:51.192Z,8.97
2018-11-25T22:47:19.604Z,9.41
2018-11-25T22:49:48.024Z,9.14
2018-11-25T22:52:16.450Z,9.24
2018-11-25T22:54:44.878Z,9.06
2018-11-25T22:57:13.330Z,9.84
2018-11-25T22:59:41.794Z,10.42
2018-11-25T23:02:10.279Z,8.77
2018-11-25T23:04:50.623Z,9.28
2018-11-25T23:07:19.091Z,9.72
2018-11-25T23:09:47.506Z,8.85
2018-11-25T23:12:15.916Z,9.01
2018-11-25T23:14:44.392Z,9.37
2018-11-25T23:17:12.855Z,9.71
2018-11-25T23:19:41.315Z,9.78
2018-11-25T23:22:09.795Z,9.27
2018-11-25T23:24:38.227Z,9.48
2018-11-25T23:27:06.694Z,9.83
2018-11-25T23:29:35.165Z,9.65
2018-11-25T23:32:03.807Z,10.54
2018-11-25T23:34:32.381Z,10.27
2018-11-25T23:37:00.879Z,9.98
2018-11-25T23:39:29.328Z,9.70
2018-11-25T23:41:57.968Z,10.43
2018-11-25T23:44:26.414Z,10.51
2018-11-25T23:46:54.880Z,10.33
2018-11-25T23:49:23.642Z,10.24
2018-11-25T23:51:52.068Z,10.57
2018-11-25T23:54:20.580Z,10.63
2018-11-25T23:56:49.027Z,10.49
2018-11-25T23:59:17.464Z,10.79
